sensor_id;sensor_type;location;lat;lon;timestamp;P1;durP1;ratioP1;P2;durP2;ratioP2
55114;SDS011;41010;53.252;5.786;2023-08-06T00:01:58;13.52;;;6.25;;
55114;SDS011;41010;53.252;5.786;2023-08-06T00:04:25;13.20;;;6.05;;
55114;SDS011;41010;53.252;5.786;2023-08-06T00:06:52;10.90;;;5.95;;
55114;SDS011;41010;53.252;5.786;2023-08-06T00:09:19;9.43;;;5.75;;
55114;SDS011;41010;53.252;5.786;2023-08-06T00:11:47;11.75;;;6.10;;
55114;SDS011;41010;53.252;5.786;2023-08-06T00:14:14;11.63;;;6.00;;
55114;SDS011;41010;53.252;5.786;2023-08-06T00:16:43;9.40;;;6.53;;
55114;SDS011;41010;53.252;5.786;2023-08-06T00:19:12;9.55;;;5.78;;
55114;SDS011;41010;53.252;5.786;2023-08-06T00:21:39;9.65;;;5.90;;
55114;SDS011;41010;53.252;5.786;2023-08-06T00:24:06;11.43;;;6.90;;
55114;SDS011;41010;53.252;5.786;2023-08-06T00:26:33;11.85;;;6.38;;
55114;SDS011;41010;53.252;5.786;2023-08-06T00:29:01;9.02;;;5.32;;
55114;SDS011;41010;53.252;5.786;2023-08-06T00:31:28;10.70;;;5.90;;
55114;SDS011;41010;53.252;5.786;2023-08-06T00:33:55;10.10;;;5.72;;
55114;SDS011;41010;53.252;5.786;2023-08-06T00:36:24;10.40;;;5.15;;
55114;SDS011;41010;53.252;5.786;2023-08-06T00:38:51;8.05;;;5.72;;
55114;SDS011;41010;53.252;5.786;2023-08-06T00:41:18;8.98;;;6.10;;
55114;SDS011;41010;53.252;5.786;2023-08-06T00:43:45;10.13;;;5.90;;
55114;SDS011;41010;53.252;5.786;2023-08-06T00:46:13;9.23;;;5.47;;
55114;SDS011;41010;53.252;5.786;2023-08-06T00:48:40;8.07;;;5.32;;
55114;SDS011;41010;53.252;5.786;2023-08-06T00:51:08;8.85;;;5.95;;
55114;SDS011;41010;53.252;5.786;2023-08-06T00:53:37;8.88;;;5.50;;
55114;SDS011;41010;53.252;5.786;2023-08-06T00:56:05;9.18;;;5.50;;
55114;SDS011;41010;53.252;5.786;2023-08-06T00:58:33;9.13;;;5.90;;
55114;SDS011;41010;53.252;5.786;2023-08-06T01:01:00;11.50;;;5.75;;
55114;SDS011;41010;53.252;5.786;2023-08-06T01:03:27;12.25;;;6.00;;
55114;SDS011;41010;53.252;5.786;2023-08-06T01:05:55;9.48;;;5.95;;
55114;SDS011;41010;53.252;5.786;2023-08-06T01:08:27;9.27;;;6.38;;
55114;SDS011;41010;53.252;5.786;2023-08-06T01:11:02;10.45;;;5.93;;
55114;SDS011;41010;53.252;5.786;2023-08-06T01:13:33;11.63;;;6.00;;
55114;SDS011;41010;53.252;5.786;2023-08-06T01:16:04;11.98;;;6.22;;
55114;SDS011;41010;53.252;5.786;2023-08-06T01:18:32;10.25;;;5.80;;
55114;SDS011;41010;53.252;5.786;2023-08-06T01:21:00;9.43;;;5.90;;
55114;SDS011;41010;53.252;5.786;2023-08-06T01:23:27;9.73;;;6.13;;
55114;SDS011;41010;53.252;5.786;2023-08-06T01:25:56;12.20;;;6.38;;
55114;SDS011;41010;53.252;5.786;2023-08-06T01:28:30;9.75;;;5.55;;
55114;SDS011;41010;53.252;5.786;2023-08-06T01:30:59;10.90;;;6.00;;
55114;SDS011;41010;53.252;5.786;2023-08-06T01:33:29;12.00;;;5.82;;
55114;SDS011;41010;53.252;5.786;2023-08-06T01:35:57;10.57;;;5.85;;
55114;SDS011;41010;53.252;5.786;2023-08-06T01:38:27;8.98;;;5.90;;
55114;SDS011;41010;53.252;5.786;2023-08-06T01:40:54;12.38;;;5.65;;
55114;SDS011;41010;53.252;5.786;2023-08-06T01:43:21;9.40;;;5.68;;
55114;SDS011;41010;53.252;5.786;2023-08-06T01:45:48;11.38;;;5.80;;
55114;SDS011;41010;53.252;5.786;2023-08-06T01:48:16;10.52;;;6.28;;
55114;SDS011;41010;53.252;5.786;2023-08-06T01:50:43;10.25;;;5.93;;
55114;SDS011;41010;53.252;5.786;2023-08-06T01:53:10;11.02;;;6.03;;
55114;SDS011;41010;53.252;5.786;2023-08-06T01:55:39;9.27;;;5.93;;
55114;SDS011;41010;53.252;5.786;2023-08-06T01:58:06;10.73;;;5.95;;
55114;SDS011;41010;53.252;5.786;2023-08-06T02:00:33;10.40;;;6.10;;
55114;SDS011;41010;53.252;5.786;2023-08-06T02:03:00;10.63;;;6.25;;
55114;SDS011;41010;53.252;5.786;2023-08-06T02:05:28;11.05;;;6.15;;
55114;SDS011;41010;53.252;5.786;2023-08-06T02:07:55;13.27;;;6.32;;
55114;SDS011;41010;53.252;5.786;2023-08-06T02:10:22;11.10;;;6.20;;
55114;SDS011;41010;53.252;5.786;2023-08-06T02:12:51;12.88;;;6.57;;
55114;SDS011;41010;53.252;5.786;2023-08-06T02:15:18;11.30;;;6.43;;
55114;SDS011;41010;53.252;5.786;2023-08-06T02:17:45;11.82;;;6.53;;
55114;SDS011;41010;53.252;5.786;2023-08-06T02:20:12;11.13;;;5.85;;
55114;SDS011;41010;53.252;5.786;2023-08-06T02:22:40;15.57;;;6.20;;
55114;SDS011;41010;53.252;5.786;2023-08-06T02:25:07;9.57;;;6.25;;
55114;SDS011;41010;53.252;5.786;2023-08-06T02:27:34;14.13;;;6.00;;
55114;SDS011;41010;53.252;5.786;2023-08-06T02:30:04;12.80;;;6.30;;
55114;SDS011;41010;53.252;5.786;2023-08-06T02:32:31;12.68;;;6.70;;
55114;SDS011;41010;53.252;5.786;2023-08-06T02:35:00;13.77;;;6.78;;
55114;SDS011;41010;53.252;5.786;2023-08-06T02:37:28;13.63;;;7.25;;
55114;SDS011;41010;53.252;5.786;2023-08-06T02:39:55;16.50;;;7.03;;
55114;SDS011;41010;53.252;5.786;2023-08-06T02:42:22;14.10;;;6.75;;
55114;SDS011;41010;53.252;5.786;2023-08-06T02:44:51;12.20;;;6.90;;
55114;SDS011;41010;53.252;5.786;2023-08-06T02:47:21;13.15;;;6.93;;
55114;SDS011;41010;53.252;5.786;2023-08-06T02:49:48;14.88;;;7.00;;
55114;SDS011;41010;53.252;5.786;2023-08-06T02:52:16;12.45;;;6.72;;
55114;SDS011;41010;53.252;5.786;2023-08-06T02:54:43;11.88;;;7.10;;
55114;SDS011;41010;53.252;5.786;2023-08-06T02:57:10;12.48;;;7.30;;
55114;SDS011;41010;53.252;5.786;2023-08-06T02:59:37;13.77;;;6.68;;
55114;SDS011;41010;53.252;5.786;2023-08-06T03:02:05;13.40;;;6.85;;
55114;SDS011;41010;53.252;5.786;2023-08-06T03:04:33;12.38;;;6.13;;
55114;SDS011;41010;53.252;5.786;2023-08-06T03:07:01;9.85;;;5.97;;
55114;SDS011;41010;53.252;5.786;2023-08-06T03:09:28;10.48;;;6.57;;
55114;SDS011;41010;53.252;5.786;2023-08-06T03:11:55;10.52;;;6.45;;
55114;SDS011;41010;53.252;5.786;2023-08-06T03:14:22;12.70;;;6.78;;
55114;SDS011;41010;53.252;5.786;2023-08-06T03:16:50;12.52;;;6.90;;
55114;SDS011;41010;53.252;5.786;2023-08-06T03:19:17;11.32;;;6.22;;
55114;SDS011;41010;53.252;5.786;2023-08-06T03:21:45;12.75;;;7.15;;
55114;SDS011;41010;53.252;5.786;2023-08-06T03:24:13;13.55;;;7.03;;
55114;SDS011;41010;53.252;5.786;2023-08-06T03:26:40;12.35;;;6.88;;
55114;SDS011;41010;53.252;5.786;2023-08-06T03:29:07;15.23;;;7.13;;
55114;SDS011;41010;53.252;5.786;2023-08-06T03:31:34;11.20;;;6.68;;
55114;SDS011;41010;53.252;5.786;2023-08-06T03:34:02;10.57;;;6.35;;
55114;SDS011;41010;53.252;5.786;2023-08-06T03:36:29;12.73;;;6.85;;
55114;SDS011;41010;53.252;5.786;2023-08-06T03:38:57;12.30;;;6.20;;
55114;SDS011;41010;53.252;5.786;2023-08-06T03:41:25;11.50;;;6.70;;
55114;SDS011;41010;53.252;5.786;2023-08-06T03:43:52;12.93;;;6.40;;
55114;SDS011;41010;53.252;5.786;2023-08-06T03:46:19;23.52;;;6.80;;
55114;SDS011;41010;53.252;5.786;2023-08-06T03:48:46;13.13;;;6.90;;
55114;SDS011;41010;53.252;5.786;2023-08-06T03:51:13;14.40;;;7.35;;
55114;SDS011;41010;53.252;5.786;2023-08-06T03:53:41;14.25;;;6.93;;
55114;SDS011;41010;53.252;5.786;2023-08-06T03:56:09;17.05;;;7.20;;
55114;SDS011;41010;53.252;5.786;2023-08-06T03:58:37;14.80;;;7.13;;
55114;SDS011;41010;53.252;5.786;2023-08-06T04:01:04;18.05;;;7.15;;
55114;SDS011;41010;53.252;5.786;2023-08-06T04:03:31;11.60;;;6.75;;
55114;SDS011;41010;53.252;5.786;2023-08-06T04:05:58;12.02;;;6.57;;
55114;SDS011;41010;53.252;5.786;2023-08-06T04:08:26;13.43;;;6.45;;
55114;SDS011;41010;53.252;5.786;2023-08-06T04:10:53;20.05;;;7.35;;
55114;SDS011;41010;53.252;5.786;2023-08-06T04:13:22;11.82;;;6.90;;
55114;SDS011;41010;53.252;5.786;2023-08-06T04:15:49;11.30;;;6.15;;
55114;SDS011;41010;53.252;5.786;2023-08-06T04:18:16;15.45;;;6.63;;
55114;SDS011;41010;53.252;5.786;2023-08-06T04:20:43;14.90;;;7.75;;
55114;SDS011;41010;53.252;5.786;2023-08-06T04:23:11;13.82;;;6.97;;
55114;SDS011;41010;53.252;5.786;2023-08-06T04:25:38;19.45;;;8.02;;
55114;SDS011;41010;53.252;5.786;2023-08-06T04:28:06;16.85;;;7.93;;
55114;SDS011;41010;53.252;5.786;2023-08-06T04:30:34;13.90;;;7.43;;
55114;SDS011;41010;53.252;5.786;2023-08-06T04:33:02;13.90;;;8.05;;
55114;SDS011;41010;53.252;5.786;2023-08-06T04:35:29;13.80;;;7.38;;
55114;SDS011;41010;53.252;5.786;2023-08-06T04:37:56;18.48;;;7.75;;
55114;SDS011;41010;53.252;5.786;2023-08-06T04:40:23;16.15;;;6.88;;
55114;SDS011;41010;53.252;5.786;2023-08-06T04:42:51;18.48;;;7.53;;
55114;SDS011;41010;53.252;5.786;2023-08-06T04:45:18;14.63;;;7.85;;
55114;SDS011;41010;53.252;5.786;2023-08-06T04:47:47;16.35;;;7.45;;
55114;SDS011;41010;53.252;5.786;2023-08-06T04:50:14;21.38;;;7.88;;
55114;SDS011;41010;53.252;5.786;2023-08-06T04:52:41;23.10;;;7.47;;
55114;SDS011;41010;53.252;5.786;2023-08-06T04:55:08;16.45;;;7.70;;
55114;SDS011;41010;53.252;5.786;2023-08-06T04:57:35;15.25;;;8.07;;
55114;SDS011;41010;53.252;5.786;2023-08-06T05:00:03;14.27;;;7.70;;
55114;SDS011;41010;53.252;5.786;2023-08-06T05:02:31;19.23;;;7.90;;
55114;SDS011;41010;53.252;5.786;2023-08-06T05:05:01;17.35;;;7.78;;
55114;SDS011;41010;53.252;5.786;2023-08-06T05:07:28;16.05;;;8.25;;
55114;SDS011;41010;53.252;5.786;2023-08-06T05:09:55;15.77;;;7.95;;
55114;SDS011;41010;53.252;5.786;2023-08-06T05:12:22;15.23;;;8.52;;
55114;SDS011;41010;53.252;5.786;2023-08-06T05:14:49;17.00;;;7.63;;
55114;SDS011;41010;53.252;5.786;2023-08-06T05:17:17;15.27;;;7.63;;
55114;SDS011;41010;53.252;5.786;2023-08-06T05:19:44;12.02;;;6.53;;
55114;SDS011;41010;53.252;5.786;2023-08-06T05:22:13;14.02;;;7.85;;
55114;SDS011;41010;53.252;5.786;2023-08-06T05:24:40;17.10;;;8.27;;
55114;SDS011;41010;53.252;5.786;2023-08-06T05:27:07;14.68;;;8.05;;
55114;SDS011;41010;53.252;5.786;2023-08-06T05:29:34;13.88;;;7.95;;
55114;SDS011;41010;53.252;5.786;2023-08-06T05:32:02;14.27;;;6.88;;
55114;SDS011;41010;53.252;5.786;2023-08-06T05:34:29;15.15;;;8.32;;
55114;SDS011;41010;53.252;5.786;2023-08-06T05:36:56;15.30;;;8.27;;
55114;SDS011;41010;53.252;5.786;2023-08-06T05:39:25;13.40;;;8.15;;
55114;SDS011;41010;53.252;5.786;2023-08-06T05:41:52;13.02;;;7.68;;
55114;SDS011;41010;53.252;5.786;2023-08-06T05:44:20;16.52;;;7.93;;
55114;SDS011;41010;53.252;5.786;2023-08-06T05:46:48;15.68;;;8.32;;
55114;SDS011;41010;53.252;5.786;2023-08-06T05:49:16;12.85;;;7.80;;
55114;SDS011;41010;53.252;5.786;2023-08-06T05:51:44;14.77;;;7.75;;
55114;SDS011;41010;53.252;5.786;2023-08-06T05:54:11;13.65;;;7.63;;
55114;SDS011;41010;53.252;5.786;2023-08-06T05:56:39;15.00;;;7.93;;
55114;SDS011;41010;53.252;5.786;2023-08-06T05:59:07;13.55;;;7.45;;
55114;SDS011;41010;53.252;5.786;2023-08-06T06:01:34;12.32;;;7.40;;
55114;SDS011;41010;53.252;5.786;2023-08-06T06:04:01;15.15;;;8.43;;
55114;SDS011;41010;53.252;5.786;2023-08-06T06:06:28;14.07;;;7.60;;
55114;SDS011;41010;53.252;5.786;2023-08-06T06:08:56;13.57;;;7.90;;
55114;SDS011;41010;53.252;5.786;2023-08-06T06:11:23;16.45;;;7.78;;
55114;SDS011;41010;53.252;5.786;2023-08-06T06:13:52;13.90;;;7.40;;
55114;SDS011;41010;53.252;5.786;2023-08-06T06:16:19;15.13;;;8.05;;
55114;SDS011;41010;53.252;5.786;2023-08-06T06:18:46;11.63;;;7.15;;
55114;SDS011;41010;53.252;5.786;2023-08-06T06:21:13;13.82;;;7.85;;
55114;SDS011;41010;53.252;5.786;2023-08-06T06:23:41;12.93;;;7.82;;
55114;SDS011;41010;53.252;5.786;2023-08-06T06:26:08;16.60;;;7.70;;
55114;SDS011;41010;53.252;5.786;2023-08-06T06:28:35;13.48;;;7.50;;
55114;SDS011;41010;53.252;5.786;2023-08-06T06:31:04;12.43;;;7.10;;
55114;SDS011;41010;53.252;5.786;2023-08-06T06:33:31;13.00;;;8.10;;
55114;SDS011;41010;53.252;5.786;2023-08-06T06:35:58;12.13;;;7.35;;
55114;SDS011;41010;53.252;5.786;2023-08-06T06:38:28;13.55;;;7.28;;
55114;SDS011;41010;53.252;5.786;2023-08-06T06:40:55;13.00;;;7.32;;
55114;SDS011;41010;53.252;5.786;2023-08-06T06:43:23;12.07;;;6.90;;
55114;SDS011;41010;53.252;5.786;2023-08-06T06:45:52;12.55;;;6.82;;
55114;SDS011;41010;53.252;5.786;2023-08-06T06:48:21;12.43;;;7.40;;
55114;SDS011;41010;53.252;5.786;2023-08-06T06:50:48;11.85;;;6.82;;
55114;SDS011;41010;53.252;5.786;2023-08-06T06:53:16;11.60;;;6.70;;
55114;SDS011;41010;53.252;5.786;2023-08-06T06:55:43;9.77;;;6.63;;
55114;SDS011;41010;53.252;5.786;2023-08-06T06:58:10;11.73;;;6.40;;
55114;SDS011;41010;53.252;5.786;2023-08-06T07:00:38;9.77;;;5.88;;
55114;SDS011;41010;53.252;5.786;2023-08-06T07:03:05;10.63;;;6.90;;
55114;SDS011;41010;53.252;5.786;2023-08-06T07:05:34;9.82;;;6.03;;
55114;SDS011;41010;53.252;5.786;2023-08-06T07:08:01;9.57;;;5.80;;
55114;SDS011;41010;53.252;5.786;2023-08-06T07:10:28;7.97;;;5.32;;
55114;SDS011;41010;53.252;5.786;2023-08-06T07:12:55;9.13;;;5.38;;
55114;SDS011;41010;53.252;5.786;2023-08-06T07:15:23;7.07;;;5.05;;
55114;SDS011;41010;53.252;5.786;2023-08-06T07:17:50;6.68;;;4.57;;
55114;SDS011;41010;53.252;5.786;2023-08-06T07:20:17;6.65;;;4.70;;
55114;SDS011;41010;53.252;5.786;2023-08-06T07:22:46;8.02;;;5.00;;
55114;SDS011;41010;53.252;5.786;2023-08-06T07:25:13;8.98;;;4.80;;
55114;SDS011;41010;53.252;5.786;2023-08-06T07:27:40;9.68;;;5.20;;
55114;SDS011;41010;53.252;5.786;2023-08-06T07:30:08;6.72;;;4.60;;
55114;SDS011;41010;53.252;5.786;2023-08-06T07:32:36;9.38;;;4.93;;
55114;SDS011;41010;53.252;5.786;2023-08-06T07:35:03;7.10;;;4.63;;
55114;SDS011;41010;53.252;5.786;2023-08-06T07:37:33;6.97;;;4.82;;
55114;SDS011;41010;53.252;5.786;2023-08-06T07:40:02;7.82;;;5.45;;
55114;SDS011;41010;53.252;5.786;2023-08-06T07:42:29;7.85;;;5.60;;
55114;SDS011;41010;53.252;5.786;2023-08-06T07:44:57;6.05;;;4.53;;
55114;SDS011;41010;53.252;5.786;2023-08-06T07:47:24;5.38;;;3.95;;
55114;SDS011;41010;53.252;5.786;2023-08-06T07:49:52;7.07;;;4.72;;
55114;SDS011;41010;53.252;5.786;2023-08-06T07:52:19;6.00;;;4.45;;
55114;SDS011;41010;53.252;5.786;2023-08-06T07:54:46;6.85;;;4.72;;
55114;SDS011;41010;53.252;5.786;2023-08-06T07:57:15;6.10;;;4.32;;
55114;SDS011;41010;53.252;5.786;2023-08-06T07:59:42;6.97;;;4.03;;
55114;SDS011;41010;53.252;5.786;2023-08-06T08:02:10;8.90;;;4.10;;
55114;SDS011;41010;53.252;5.786;2023-08-06T08:04:37;4.70;;;3.65;;
55114;SDS011;41010;53.252;5.786;2023-08-06T08:07:04;5.78;;;3.90;;
55114;SDS011;41010;53.252;5.786;2023-08-06T08:09:32;5.25;;;3.42;;
55114;SDS011;41010;53.252;5.786;2023-08-06T08:12:01;4.78;;;3.33;;
55114;SDS011;41010;53.252;5.786;2023-08-06T08:14:30;4.90;;;3.60;;
55114;SDS011;41010;53.252;5.786;2023-08-06T08:17:00;4.95;;;3.40;;
55114;SDS011;41010;53.252;5.786;2023-08-06T08:19:28;4.78;;;3.70;;
55114;SDS011;41010;53.252;5.786;2023-08-06T08:21:56;3.88;;;2.88;;
55114;SDS011;41010;53.252;5.786;2023-08-06T08:24:23;4.28;;;3.05;;
55114;SDS011;41010;53.252;5.786;2023-08-06T08:26:50;3.45;;;2.65;;
55114;SDS011;41010;53.252;5.786;2023-08-06T08:29:19;4.00;;;2.90;;
55114;SDS011;41010;53.252;5.786;2023-08-06T08:31:48;4.35;;;2.70;;
55114;SDS011;41010;53.252;5.786;2023-08-06T08:34:15;4.63;;;2.83;;
55114;SDS011;41010;53.252;5.786;2023-08-06T08:36:42;3.63;;;2.80;;
55114;SDS011;41010;53.252;5.786;2023-08-06T08:39:12;4.45;;;2.72;;
55114;SDS011;41010;53.252;5.786;2023-08-06T08:41:39;4.80;;;3.05;;
55114;SDS011;41010;53.252;5.786;2023-08-06T08:44:07;4.13;;;3.15;;
55114;SDS011;41010;53.252;5.786;2023-08-06T08:46:35;3.55;;;2.40;;
55114;SDS011;41010;53.252;5.786;2023-08-06T08:49:04;6.53;;;2.50;;
55114;SDS011;41010;53.252;5.786;2023-08-06T08:51:33;4.10;;;2.72;;
55114;SDS011;41010;53.252;5.786;2023-08-06T08:54:01;3.78;;;2.78;;
55114;SDS011;41010;53.252;5.786;2023-08-06T08:56:29;3.72;;;2.60;;
55114;SDS011;41010;53.252;5.786;2023-08-06T08:58:57;5.07;;;3.00;;
55114;SDS011;41010;53.252;5.786;2023-08-06T09:01:24;3.65;;;2.50;;
55114;SDS011;41010;53.252;5.786;2023-08-06T09:03:52;6.32;;;2.50;;
55114;SDS011;41010;53.252;5.786;2023-08-06T09:06:22;4.15;;;2.42;;
55114;SDS011;41010;53.252;5.786;2023-08-06T09:08:56;3.60;;;2.17;;
55114;SDS011;41010;53.252;5.786;2023-08-06T09:11:23;2.60;;;2.10;;
55114;SDS011;41010;53.252;5.786;2023-08-06T09:13:51;3.67;;;2.20;;
55114;SDS011;41010;53.252;5.786;2023-08-06T09:16:20;2.38;;;1.92;;
55114;SDS011;41010;53.252;5.786;2023-08-06T09:18:47;2.88;;;1.75;;
55114;SDS011;41010;53.252;5.786;2023-08-06T09:21:14;2.67;;;1.50;;
55114;SDS011;41010;53.252;5.786;2023-08-06T09:23:43;3.28;;;1.42;;
55114;SDS011;41010;53.252;5.786;2023-08-06T09:26:11;2.17;;;1.70;;
55114;SDS011;41010;53.252;5.786;2023-08-06T09:28:39;2.85;;;1.30;;
55114;SDS011;41010;53.252;5.786;2023-08-06T09:31:08;2.35;;;1.35;;
55114;SDS011;41010;53.252;5.786;2023-08-06T09:33:36;2.38;;;1.40;;
55114;SDS011;41010;53.252;5.786;2023-08-06T09:36:08;3.80;;;1.65;;
55114;SDS011;41010;53.252;5.786;2023-08-06T09:38:37;1.58;;;1.20;;
55114;SDS011;41010;53.252;5.786;2023-08-06T09:41:06;2.60;;;1.20;;
55114;SDS011;41010;53.252;5.786;2023-08-06T09:43:40;2.60;;;1.50;;
55114;SDS011;41010;53.252;5.786;2023-08-06T09:46:11;1.98;;;1.55;;
55114;SDS011;41010;53.252;5.786;2023-08-06T09:48:39;2.03;;;1.33;;
55114;SDS011;41010;53.252;5.786;2023-08-06T09:51:07;2.15;;;1.42;;
55114;SDS011;41010;53.252;5.786;2023-08-06T09:53:35;1.25;;;1.15;;
55114;SDS011;41010;53.252;5.786;2023-08-06T09:56:04;2.95;;;1.60;;
55114;SDS011;41010;53.252;5.786;2023-08-06T09:58:33;2.97;;;1.30;;
55114;SDS011;41010;53.252;5.786;2023-08-06T10:01:00;1.70;;;1.35;;
55114;SDS011;41010;53.252;5.786;2023-08-06T10:03:28;2.65;;;1.65;;
55114;SDS011;41010;53.252;5.786;2023-08-06T10:05:56;4.18;;;1.58;;
55114;SDS011;41010;53.252;5.786;2023-08-06T10:08:23;2.08;;;1.33;;
55114;SDS011;41010;53.252;5.786;2023-08-06T10:10:50;4.38;;;1.70;;
55114;SDS011;41010;53.252;5.786;2023-08-06T10:13:18;2.17;;;1.48;;
55114;SDS011;41010;53.252;5.786;2023-08-06T10:15:48;2.72;;;1.55;;
55114;SDS011;41010;53.252;5.786;2023-08-06T10:18:17;3.33;;;1.38;;
55114;SDS011;41010;53.252;5.786;2023-08-06T10:20:47;2.33;;;1.42;;
55114;SDS011;41010;53.252;5.786;2023-08-06T10:23:15;4.28;;;1.67;;
55114;SDS011;41010;53.252;5.786;2023-08-06T10:25:42;2.22;;;1.55;;
55114;SDS011;41010;53.252;5.786;2023-08-06T10:28:10;2.30;;;1.48;;
55114;SDS011;41010;53.252;5.786;2023-08-06T10:30:42;2.60;;;1.80;;
55114;SDS011;41010;53.252;5.786;2023-08-06T10:33:11;2.33;;;1.70;;
55114;SDS011;41010;53.252;5.786;2023-08-06T10:35:40;4.47;;;1.92;;
55114;SDS011;41010;53.252;5.786;2023-08-06T10:38:09;2.47;;;1.52;;
55114;SDS011;41010;53.252;5.786;2023-08-06T10:40:36;2.28;;;1.65;;
55114;SDS011;41010;53.252;5.786;2023-08-06T10:43:06;2.05;;;1.70;;
55114;SDS011;41010;53.252;5.786;2023-08-06T10:45:35;2.53;;;1.60;;
55114;SDS011;41010;53.252;5.786;2023-08-06T10:48:03;3.30;;;1.58;;
55114;SDS011;41010;53.252;5.786;2023-08-06T10:50:32;2.45;;;1.60;;
55114;SDS011;41010;53.252;5.786;2023-08-06T10:53:03;4.63;;;1.70;;
55114;SDS011;41010;53.252;5.786;2023-08-06T10:55:31;2.58;;;1.48;;
55114;SDS011;41010;53.252;5.786;2023-08-06T10:57:59;4.05;;;1.65;;
55114;SDS011;41010;53.252;5.786;2023-08-06T11:00:26;2.75;;;1.85;;
55114;SDS011;41010;53.252;5.786;2023-08-06T11:02:53;3.50;;;2.20;;
55114;SDS011;41010;53.252;5.786;2023-08-06T11:05:21;6.85;;;2.47;;
55114;SDS011;41010;53.252;5.786;2023-08-06T11:07:49;3.63;;;2.00;;
55114;SDS011;41010;53.252;5.786;2023-08-06T11:10:17;3.20;;;2.05;;
55114;SDS011;41010;53.252;5.786;2023-08-06T11:12:45;4.43;;;2.25;;
55114;SDS011;41010;53.252;5.786;2023-08-06T11:15:12;2.80;;;2.00;;
55114;SDS011;41010;53.252;5.786;2023-08-06T11:17:40;3.20;;;2.00;;
55114;SDS011;41010;53.252;5.786;2023-08-06T11:20:08;3.85;;;2.17;;
55114;SDS011;41010;53.252;5.786;2023-08-06T11:22:36;4.00;;;2.15;;
55114;SDS011;41010;53.252;5.786;2023-08-06T11:25:05;3.25;;;1.73;;
55114;SDS011;41010;53.252;5.786;2023-08-06T11:27:32;3.38;;;1.83;;
55114;SDS011;41010;53.252;5.786;2023-08-06T11:30:00;3.67;;;2.20;;
55114;SDS011;41010;53.252;5.786;2023-08-06T11:32:27;2.55;;;1.98;;
55114;SDS011;41010;53.252;5.786;2023-08-06T11:34:55;5.35;;;1.90;;
55114;SDS011;41010;53.252;5.786;2023-08-06T11:37:22;4.20;;;2.22;;
55114;SDS011;41010;53.252;5.786;2023-08-06T11:39:51;4.18;;;2.40;;
55114;SDS011;41010;53.252;5.786;2023-08-06T11:42:20;2.85;;;2.03;;
55114;SDS011;41010;53.252;5.786;2023-08-06T11:44:47;4.20;;;1.80;;
55114;SDS011;41010;53.252;5.786;2023-08-06T11:47:15;2.85;;;1.75;;
55114;SDS011;41010;53.252;5.786;2023-08-06T11:49:43;4.07;;;1.75;;
55114;SDS011;41010;53.252;5.786;2023-08-06T11:52:15;2.78;;;1.77;;
55114;SDS011;41010;53.252;5.786;2023-08-06T11:54:44;3.25;;;1.77;;
55114;SDS011;41010;53.252;5.786;2023-08-06T11:57:12;3.55;;;1.83;;
55114;SDS011;41010;53.252;5.786;2023-08-06T11:59:40;3.53;;;1.75;;
55114;SDS011;41010;53.252;5.786;2023-08-06T12:02:09;3.42;;;2.22;;
55114;SDS011;41010;53.252;5.786;2023-08-06T12:07:25;3.13;;;1.83;;
55114;SDS011;41010;53.252;5.786;2023-08-06T12:09:53;7.78;;;1.83;;
55114;SDS011;41010;53.252;5.786;2023-08-06T12:12:20;2.00;;;1.60;;
55114;SDS011;41010;53.252;5.786;2023-08-06T12:14:50;3.78;;;1.77;;
55114;SDS011;41010;53.252;5.786;2023-08-06T12:17:17;2.28;;;1.50;;
55114;SDS011;41010;53.252;5.786;2023-08-06T12:19:44;2.22;;;1.73;;
55114;SDS011;41010;53.252;5.786;2023-08-06T12:22:12;2.83;;;1.70;;
55114;SDS011;41010;53.252;5.786;2023-08-06T12:24:40;2.40;;;1.70;;
55114;SDS011;41010;53.252;5.786;2023-08-06T12:27:07;4.30;;;1.98;;
55114;SDS011;41010;53.252;5.786;2023-08-06T12:29:35;3.28;;;2.08;;
55114;SDS011;41010;53.252;5.786;2023-08-06T12:32:04;3.08;;;2.00;;
55114;SDS011;41010;53.252;5.786;2023-08-06T12:34:31;3.35;;;1.80;;
55114;SDS011;41010;53.252;5.786;2023-08-06T12:36:59;2.70;;;2.10;;
55114;SDS011;41010;53.252;5.786;2023-08-06T12:39:26;5.32;;;1.90;;
55114;SDS011;41010;53.252;5.786;2023-08-06T12:41:54;2.55;;;1.92;;
55114;SDS011;41010;53.252;5.786;2023-08-06T12:44:22;2.20;;;1.73;;
55114;SDS011;41010;53.252;5.786;2023-08-06T12:46:50;3.28;;;2.00;;
55114;SDS011;41010;53.252;5.786;2023-08-06T12:49:19;2.47;;;1.50;;
55114;SDS011;41010;53.252;5.786;2023-08-06T12:51:47;2.42;;;1.80;;
55114;SDS011;41010;53.252;5.786;2023-08-06T12:54:15;2.50;;;2.05;;
55114;SDS011;41010;53.252;5.786;2023-08-06T12:56:43;4.15;;;1.95;;
55114;SDS011;41010;53.252;5.786;2023-08-06T12:59:11;4.55;;;2.33;;
55114;SDS011;41010;53.252;5.786;2023-08-06T13:01:38;4.78;;;2.08;;
55114;SDS011;41010;53.252;5.786;2023-08-06T13:04:05;2.00;;;1.40;;
55114;SDS011;41010;53.252;5.786;2023-08-06T13:06:34;4.80;;;1.95;;
55114;SDS011;41010;53.252;5.786;2023-08-06T13:09:02;3.08;;;1.80;;
55114;SDS011;41010;53.252;5.786;2023-08-06T13:11:29;2.63;;;1.58;;
55114;SDS011;41010;53.252;5.786;2023-08-06T13:13:59;4.00;;;2.00;;
55114;SDS011;41010;53.252;5.786;2023-08-06T13:16:26;3.15;;;1.67;;
55114;SDS011;41010;53.252;5.786;2023-08-06T13:18:54;3.05;;;1.48;;
55114;SDS011;41010;53.252;5.786;2023-08-06T13:21:21;2.13;;;1.65;;
55114;SDS011;41010;53.252;5.786;2023-08-06T13:23:50;2.42;;;1.67;;
55114;SDS011;41010;53.252;5.786;2023-08-06T13:26:17;2.05;;;1.42;;
55114;SDS011;41010;53.252;5.786;2023-08-06T13:28:44;3.90;;;2.00;;
55114;SDS011;41010;53.252;5.786;2023-08-06T13:31:11;2.05;;;1.40;;
55114;SDS011;41010;53.252;5.786;2023-08-06T13:33:39;2.15;;;1.33;;
55114;SDS011;41010;53.252;5.786;2023-08-06T13:36:06;2.63;;;1.40;;
55114;SDS011;41010;53.252;5.786;2023-08-06T13:38:33;1.65;;;1.40;;
55114;SDS011;41010;53.252;5.786;2023-08-06T13:41:02;3.08;;;1.45;;
55114;SDS011;41010;53.252;5.786;2023-08-06T13:43:30;2.28;;;1.40;;
55114;SDS011;41010;53.252;5.786;2023-08-06T13:45:58;1.98;;;1.70;;
55114;SDS011;41010;53.252;5.786;2023-08-06T13:48:25;2.50;;;1.75;;
55114;SDS011;41010;53.252;5.786;2023-08-06T13:50:52;4.28;;;1.70;;
55114;SDS011;41010;53.252;5.786;2023-08-06T13:53:19;2.05;;;1.50;;
55114;SDS011;41010;53.252;5.786;2023-08-06T13:55:47;2.50;;;1.48;;
55114;SDS011;41010;53.252;5.786;2023-08-06T13:58:15;1.85;;;1.40;;
55114;SDS011;41010;53.252;5.786;2023-08-06T14:00:42;2.88;;;1.40;;
55114;SDS011;41010;53.252;5.786;2023-08-06T14:03:10;1.55;;;1.20;;
55114;SDS011;41010;53.252;5.786;2023-08-06T14:05:37;2.80;;;1.63;;
55114;SDS011;41010;53.252;5.786;2023-08-06T14:08:04;1.90;;;1.35;;
55114;SDS011;41010;53.252;5.786;2023-08-06T14:10:32;2.47;;;1.45;;
55114;SDS011;41010;53.252;5.786;2023-08-06T14:12:59;2.47;;;1.40;;
55114;SDS011;41010;53.252;5.786;2023-08-06T14:15:28;2.45;;;1.40;;
55114;SDS011;41010;53.252;5.786;2023-08-06T14:17:55;2.78;;;1.33;;
55114;SDS011;41010;53.252;5.786;2023-08-06T14:20:22;2.55;;;1.40;;
55114;SDS011;41010;53.252;5.786;2023-08-06T14:22:49;3.63;;;2.10;;
55114;SDS011;41010;53.252;5.786;2023-08-06T14:25:17;1.65;;;1.08;;
55114;SDS011;41010;53.252;5.786;2023-08-06T14:27:44;2.22;;;1.20;;
55114;SDS011;41010;53.252;5.786;2023-08-06T14:30:11;2.97;;;1.13;;
55114;SDS011;41010;53.252;5.786;2023-08-06T14:32:40;1.83;;;1.25;;
55114;SDS011;41010;53.252;5.786;2023-08-06T14:35:07;2.50;;;1.23;;
55114;SDS011;41010;53.252;5.786;2023-08-06T14:37:34;4.68;;;1.40;;
55114;SDS011;41010;53.252;5.786;2023-08-06T14:40:02;1.77;;;1.20;;
55114;SDS011;41010;53.252;5.786;2023-08-06T14:42:29;3.65;;;1.40;;
55114;SDS011;41010;53.252;5.786;2023-08-06T14:44:56;5.38;;;1.50;;
55114;SDS011;41010;53.252;5.786;2023-08-06T14:47:24;6.07;;;1.30;;
55114;SDS011;41010;53.252;5.786;2023-08-06T14:49:52;3.85;;;1.33;;